Time;durP1;ratioP1;P1;durP2;ratioP2;P2;SDS_P1;SDS_P2;PMS_P1;PMS_P2;Temp;Humidity;BMP_temperature;BMP_pressure;BME280_temperature;BME280_humidity;BME280_pressure;Samples;Min_cycle;Max_cycle;Signal;HPM_P1;HPM_P2
2022/08/28 00:00:54;;;;;;;7.07;2.47;;;14.50;99.90;;;;;;5034349;28;20132;-80
2022/08/28 00:03:20;;;;;;;6.95;2.75;;;14.50;99.90;;;;;;5017676;28;20041;-80
2022/08/28 00:05:45;;;;;;;5.38;2.45;;;14.40;99.90;;;;;;5017435;28;20076;-80
2022/08/28 00:08:13;;;;;;;8.32;2.80;;;14.40;99.90;;;;;;5017145;28;20049;-81
2022/08/28 00:10:40;;;;;;;6.15;2.70;;;14.40;99.90;;;;;;5033810;28;20091;-80
2022/08/28 00:13:07;;;;;;;6.68;2.67;;;14.30;99.90;;;;;;5016526;28;20139;-80
2022/08/28 00:15:36;;;;;;;9.27;3.17;;;14.30;99.90;;;;;;5032933;28;20045;-80
2022/08/28 00:18:03;;;;;;;8.65;3.00;;;14.30;99.90;;;;;;5033227;28;20163;-81
2022/08/28 00:20:31;;;;;;;7.65;2.70;;;14.30;99.90;;;;;;5032976;28;20124;-81
2022/08/28 00:22:59;;;;;;;7.70;3.00;;;14.20;99.90;;;;;;5033775;28;20034;-80
2022/08/28 00:25:27;;;;;;;7.10;2.60;;;14.20;99.90;;;;;;5016883;28;20124;-80
2022/08/28 00:27:58;;;;;;;7.53;2.75;;;14.20;99.90;;;;;;5033448;28;20099;-81
2022/08/28 00:30:51;;;;;;;7.38;2.60;;;14.20;99.90;;;;;;5032726;28;20041;-80
2022/08/28 00:33:31;;;;;;;9.32;2.30;;;14.10;99.90;;;;;;5031590;28;20103;-81
2022/08/28 00:35:59;;;;;;;6.30;2.65;;;14.10;99.90;;;;;;5016771;28;20041;-81
2022/08/28 00:38:27;;;;;;;7.43;2.30;;;14.00;99.90;;;;;;5033257;28;20037;-81
2022/08/28 00:40:56;;;;;;;6.28;2.08;;;14.00;99.90;;;;;;5033177;28;20116;-81
2022/08/28 00:43:39;;;;;;;5.80;2.10;;;13.90;99.90;;;;;;5033378;28;20489;-80
2022/08/28 00:46:20;;;;;;;3.97;2.10;;;13.90;99.90;;;;;;5033011;28;20045;-80
2022/08/28 00:48:46;;;;;;;7.55;2.20;;;13.80;99.90;;;;;;5033152;28;20132;-80
2022/08/28 00:53:59;;;;;;;9.52;2.20;;;13.80;99.90;;;;;;5033028;28;20060;-80
2022/08/28 00:56:28;;;;;;;8.20;2.15;;;13.80;99.90;;;;;;5032667;28;20132;-80
2022/08/28 00:58:56;;;;;;;8.68;2.75;;;13.70;99.90;;;;;;5032594;28;20033;-81
2022/08/28 01:01:22;;;;;;;7.07;2.58;;;13.70;99.90;;;;;;5032822;28;20049;-80
2022/08/28 01:03:48;;;;;;;7.55;2.53;;;13.60;99.90;;;;;;5032113;28;20119;-80
2022/08/28 01:06:15;;;;;;;6.38;2.42;;;13.60;99.90;;;;;;5032704;28;20041;-80
2022/08/28 01:08:44;;;;;;;5.50;2.80;;;13.60;99.90;;;;;;5032672;28;20045;-80
2022/08/28 01:11:12;;;;;;;13.43;2.33;;;13.60;99.90;;;;;;5031398;28;20045;-80
2022/08/28 01:13:40;;;;;;;7.35;2.78;;;13.50;99.90;;;;;;5032513;28;20107;-80
2022/08/28 01:16:06;;;;;;;9.95;2.88;;;13.50;99.90;;;;;;5032436;28;20053;-80
2022/08/28 01:18:33;;;;;;;6.20;2.63;;;13.50;99.90;;;;;;5032065;28;20037;-81
2022/08/28 01:21:33;;;;;;;8.07;2.45;;;13.50;99.90;;;;;;5032706;28;20460;-81
2022/08/28 01:24:05;;;;;;;3.97;2.40;;;13.50;99.90;;;;;;5032110;28;20041;-80
2022/08/28 01:26:31;;;;;;;5.90;2.22;;;13.60;99.90;;;;;;5032549;28;20041;-80
2022/08/28 01:28:58;;;;;;;5.93;2.40;;;13.60;99.90;;;;;;5015715;28;20045;-80
2022/08/28 01:31:27;;;;;;;5.10;1.98;;;13.60;99.90;;;;;;5032330;28;20041;-80
2022/08/28 01:33:53;;;;;;;5.40;2.42;;;13.60;99.90;;;;;;5015555;28;20041;-80
2022/08/28 01:36:19;;;;;;;7.28;2.92;;;13.60;99.90;;;;;;5031976;28;20041;-80
2022/08/28 01:38:51;;;;;;;5.88;2.20;;;13.60;99.90;;;;;;5031997;28;20044;-80
2022/08/28 01:41:18;;;;;;;6.88;2.60;;;13.60;99.90;;;;;;5031570;28;20069;-80
2022/08/28 01:43:43;;;;;;;4.82;2.70;;;13.50;99.90;;;;;;5031632;28;20111;-80
2022/08/28 01:46:11;;;;;;;5.88;2.70;;;13.50;99.90;;;;;;5031780;28;20088;-80
2022/08/28 01:48:41;;;;;;;6.93;3.03;;;13.50;99.90;;;;;;5031640;28;20049;-80
2022/08/28 01:51:07;;;;;;;5.15;2.28;;;13.50;99.90;;;;;;5032197;28;20508;-81
2022/08/28 01:53:33;;;;;;;10.98;2.58;;;13.50;99.90;;;;;;5031467;28;20049;-80
2022/08/28 01:56:03;;;;;;;7.57;2.50;;;13.50;99.90;;;;;;5031710;28;20049;-80
2022/08/28 01:58:29;;;;;;;5.20;2.58;;;13.50;99.90;;;;;;5031816;28;20053;-80
2022/08/28 02:00:56;;;;;;;;;;;13.40;99.90;;;;;;5031454;28;20096;-80
2022/08/28 02:03:22;;;;;;;6.88;2.40;;;13.40;99.90;;;;;;5031357;28;19921;-80
2022/08/28 02:05:48;;;;;;;6.28;2.15;;;13.30;99.90;;;;;;5031352;28;20080;-80
2022/08/28 02:08:14;;;;;;;7.15;2.38;;;13.40;99.90;;;;;;5031747;28;20041;-81
2022/08/28 02:10:42;;;;;;;4.38;2.00;;;13.30;99.90;;;;;;5014855;28;20041;-80
2022/08/28 02:13:08;;;;;;;6.70;2.53;;;13.30;99.90;;;;;;5031170;28;20045;-80
2022/08/28 02:15:35;;;;;;;5.32;2.38;;;13.30;99.90;;;;;;5031419;28;20045;-80
2022/08/28 02:18:01;;;;;;;6.70;2.60;;;13.30;99.90;;;;;;5015198;28;20048;-80
2022/08/28 02:20:28;;;;;;;5.93;2.15;;;13.30;99.90;;;;;;5031534;28;20127;-80
2022/08/28 02:22:54;;;;;;;;;;;13.30;99.90;;;;;;5031207;28;20041;-80
2022/08/28 02:25:21;;;;;;;6.90;2.22;;;13.30;99.90;;;;;;5030949;28;19968;-80
2022/08/28 02:27:47;;;;;;;;;;;13.30;99.90;;;;;;5031678;28;20469;-80
2022/08/28 02:30:15;;;;;;;7.57;2.72;;;13.30;99.90;;;;;;5031168;28;19967;-80
2022/08/28 02:32:42;;;;;;;9.35;2.22;;;13.20;99.90;;;;;;5030656;28;20633;-80
2022/08/28 02:35:10;;;;;;;5.75;1.75;;;13.20;99.90;;;;;;5014568;28;20045;-80
2022/08/28 02:37:36;;;;;;;6.78;1.92;;;13.10;99.90;;;;;;5031533;28;20473;-80
2022/08/28 02:40:03;;;;;;;6.15;2.60;;;13.10;99.90;;;;;;5031072;28;20511;-80
2022/08/28 02:42:28;;;;;;;7.18;2.30;;;13.00;99.90;;;;;;5014391;28;20037;-80
2022/08/28 02:44:54;;;;;;;7.13;2.30;;;13.00;99.90;;;;;;4998113;28;20551;-80
2022/08/28 02:47:20;;;;;;;6.43;2.20;;;13.00;99.90;;;;;;5014292;28;20493;-81
2022/08/28 02:49:46;;;;;;;5.10;2.28;;;13.00;99.90;;;;;;5030594;28;20091;-80
2022/08/28 02:52:11;;;;;;;8.07;2.30;;;13.00;99.90;;;;;;5031183;28;20434;-80
2022/08/28 02:54:38;;;;;;;5.82;2.50;;;13.00;99.90;;;;;;5014173;28;20116;-80
2022/08/28 02:57:07;;;;;;;5.80;1.88;;;13.00;99.90;;;;;;5030458;28;20063;-80
2022/08/28 02:59:37;;;;;;;8.13;2.00;;;13.00;99.90;;;;;;5030563;28;20041;-80
2022/08/28 03:02:05;;;;;;;8.52;2.58;;;13.00;99.90;;;;;;5030843;28;20131;-80
2022/08/28 03:04:35;;;;;;;5.03;2.00;;;13.00;99.90;;;;;;5014833;28;20091;-80
2022/08/28 03:07:03;;;;;;;7.55;2.00;;;12.90;99.90;;;;;;5030452;28;20041;-80
2022/08/28 03:09:29;;;;;;;4.45;1.88;;;12.90;99.90;;;;;;5014347;28;20500;-80
2022/08/28 03:11:55;;;;;;;4.65;2.10;;;12.90;99.90;;;;;;5030469;28;20451;-80
2022/08/28 03:14:21;;;;;;;6.75;2.05;;;12.80;99.90;;;;;;5014288;28;20077;-80
2022/08/28 03:16:47;;;;;;;5.53;2.28;;;12.80;99.90;;;;;;5030130;28;20046;-80
2022/08/28 03:19:14;;;;;;;6.65;2.13;;;12.70;99.90;;;;;;5014346;28;20041;-80
2022/08/28 03:21:39;;;;;;;7.40;2.10;;;12.70;99.90;;;;;;5030696;28;20527;-80
2022/08/28 03:24:05;;;;;;;11.10;1.93;;;12.70;99.90;;;;;;5014451;28;20104;-80
2022/08/28 03:26:32;;;;;;;5.63;2.58;;;12.70;99.90;;;;;;5029904;28;20300;-80
2022/08/28 03:28:58;;;;;;;6.38;2.17;;;12.60;99.90;;;;;;5030677;28;20482;-80
2022/08/28 03:31:26;;;;;;;6.53;2.33;;;12.60;99.90;;;;;;5030449;28;20103;-80
2022/08/28 03:33:52;;;;;;;6.45;2.33;;;12.60;99.90;;;;;;5032333;28;20550;-80
2022/08/28 03:36:21;;;;;;;8.15;1.98;;;12.60;99.90;;;;;;5034064;28;20493;-80
2022/08/28 03:38:48;;;;;;;7.38;2.25;;;12.50;99.90;;;;;;5034370;28;20761;-80
2022/08/28 03:41:17;;;;;;;5.68;1.60;;;12.50;99.90;;;;;;5017895;28;20037;-80
2022/08/28 03:43:43;;;;;;;4.72;1.70;;;12.40;99.90;;;;;;5033890;28;20048;-80
2022/08/28 03:46:17;;;;;;;4.90;1.60;;;12.40;99.90;;;;;;5017219;28;20098;-80
2022/08/28 03:48:43;;;;;;;7.75;1.80;;;12.40;99.90;;;;;;5017337;28;20048;-80
2022/08/28 03:51:14;;;;;;;4.75;1.70;;;12.40;99.90;;;;;;5017667;28;20042;-80
2022/08/28 03:53:41;;;;;;;5.78;1.88;;;12.30;99.90;;;;;;5033979;28;20413;-80
2022/08/28 03:56:13;;;;;;;3.67;1.98;;;12.30;99.90;;;;;;5033833;28;20700;-80
2022/08/28 03:58:40;;;;;;;6.20;1.90;;;12.20;99.90;;;;;;5034269;28;20045;-80
2022/08/28 04:01:06;;;;;;;6.95;2.13;;;12.30;99.90;;;;;;5034227;28;20128;-80
2022/08/28 04:03:32;;;;;;;;;;;12.20;99.90;;;;;;5033736;28;20059;-80
2022/08/28 04:05:58;;;;;;;4.38;1.70;;;12.20;99.90;;;;;;5033570;28;20292;-80
2022/08/28 04:08:24;;;;;;;3.95;1.70;;;12.10;99.90;;;;;;5017414;28;20465;-80
2022/08/28 04:10:51;;;;;;;5.65;1.60;;;12.10;99.90;;;;;;5017107;28;20057;-80
2022/08/28 04:13:19;;;;;;;5.90;1.70;;;12.50;99.90;;;;;;5033594;28;20045;-80
2022/08/28 04:15:45;;;;;;;3.20;1.55;;;12.10;99.90;;;;;;5033419;28;20041;-80
2022/08/28 04:18:11;;;;;;;4.55;1.52;;;12.10;99.90;;;;;;5033494;28;20072;-80
2022/08/28 04:20:37;;;;;;;3.60;1.90;;;12.10;99.90;;;;;;5016809;28;20041;-80
2022/08/28 04:23:06;;;;;;;3.40;1.65;;;12.00;99.90;;;;;;5033073;28;20038;-80
2022/08/28 04:25:32;;;;;;;4.82;1.65;;;12.10;99.90;;;;;;5033362;28;20049;-80
2022/08/28 04:27:59;;;;;;;3.13;1.20;;;12.10;99.90;;;;;;5016977;28;20504;-80
2022/08/28 04:30:25;;;;;;;3.03;1.58;;;12.10;99.90;;;;;;5033632;28;20460;-80
2022/08/28 04:32:51;;;;;;;4.63;1.80;;;12.20;99.90;;;;;;5033033;28;20339;-80
2022/08/28 04:35:17;;;;;;;3.70;1.60;;;12.10;99.90;;;;;;5016605;28;20485;-80
2022/08/28 04:37:42;;;;;;;3.08;1.42;;;12.10;99.90;;;;;;5033230;28;20477;-80
2022/08/28 04:40:09;;;;;;;4.40;1.47;;;12.20;99.90;;;;;;5016536;28;20091;-80
2022/08/28 04:42:37;;;;;;;4.90;1.90;;;12.20;99.90;;;;;;5016303;28;20041;-80
2022/08/28 04:45:04;;;;;;;5.57;2.00;;;12.10;99.90;;;;;;5032597;28;20049;-80
2022/08/28 04:47:33;;;;;;;6.15;1.88;;;12.10;99.90;;;;;;5032635;28;20037;-79
2022/08/28 04:49:59;;;;;;;5.28;1.55;;;12.10;99.90;;;;;;5016246;28;20045;-79
2022/08/28 04:52:25;;;;;;;5.37;1.87;;;12.10;99.90;;;;;;5016392;28;20489;-80
2022/08/28 04:54:51;;;;;;;2.17;1.30;;;12.10;99.90;;;;;;5032880;28;20045;-80
2022/08/28 04:57:17;;;;;;;5.50;1.70;;;12.10;99.90;;;;;;5032500;28;20387;-80
2022/08/28 04:59:43;;;;;;;4.55;1.75;;;12.20;99.90;;;;;;5032015;28;20083;-80
2022/08/28 05:02:09;;;;;;;3.80;1.63;;;12.20;99.90;;;;;;5033067;28;20045;-80
2022/08/28 05:04:35;;;;;;;3.85;1.50;;;12.20;99.90;;;;;;5032242;28;20042;-80
2022/08/28 05:07:01;;;;;;;6.43;1.50;;;12.20;99.90;;;;;;5016109;28;20045;-80
2022/08/28 05:09:26;;;;;;;12.03;1.93;;;12.20;99.90;;;;;;5015892;28;20296;-80
2022/08/28 05:11:52;;;;;;;3.92;1.70;;;12.20;99.90;;;;;;5032285;28;20129;-80
2022/08/28 05:14:20;;;;;;;5.43;1.70;;;12.20;99.90;;;;;;5016392;28;20076;-80
2022/08/28 05:16:51;;;;;;;3.65;1.58;;;12.20;99.90;;;;;;5031686;28;20480;-80
2022/08/28 05:19:19;;;;;;;6.72;1.80;;;12.20;99.90;;;;;;5032289;28;20041;-80
2022/08/28 05:21:45;;;;;;;5.85;1.60;;;12.20;99.90;;;;;;5032536;28;20490;-80
2022/08/28 05:24:12;;;;;;;6.10;1.60;;;12.20;99.90;;;;;;5031963;28;20044;-80
2022/08/28 05:26:39;;;;;;;4.30;1.70;;;12.30;99.90;;;;;;5032376;28;20052;-80
2022/08/28 05:29:06;;;;;;;6.65;1.70;;;12.40;99.90;;;;;;5032007;28;20045;-80
2022/08/28 05:31:33;;;;;;;9.70;1.80;;;12.50;99.90;;;;;;5031920;28;20374;-80
2022/08/28 05:33:59;;;;;;;5.82;1.80;;;12.50;99.90;;;;;;5014833;28;20090;-80
2022/08/28 05:36:27;;;;;;;6.90;1.70;;;12.60;99.90;;;;;;5031265;28;20132;-80
2022/08/28 05:38:57;;;;;;;7.97;2.10;;;12.80;99.90;;;;;;5031331;28;20408;-80
2022/08/28 05:41:25;;;;;;;5.60;1.98;;;12.90;99.90;;;;;;5014837;28;20049;-80
2022/08/28 05:43:52;;;;;;;8.82;2.40;;;13.00;99.90;;;;;;5031397;28;20045;-80
2022/08/28 05:46:19;;;;;;;5.97;2.10;;;13.20;99.90;;;;;;5015420;28;20492;-80
2022/08/28 05:48:47;;;;;;;6.18;2.35;;;13.30;99.90;;;;;;5031241;28;20037;-80
2022/08/28 05:51:19;;;;;;;6.68;1.90;;;13.50;99.90;;;;;;5014585;28;20463;-80
2022/08/28 05:53:45;;;;;;;7.47;1.90;;;13.70;99.90;;;;;;5031244;28;20048;-80
2022/08/28 05:56:14;;;;;;;4.00;1.55;;;14.00;99.90;;;;;;5030561;28;20083;-80
2022/08/28 05:58:40;;;;;;;3.95;1.58;;;14.20;99.90;;;;;;5014891;28;20069;-80
2022/08/28 06:01:13;;;;;;;11.45;2.63;;;14.50;99.90;;;;;;5031728;28;20122;-80
2022/08/28 06:03:41;;;;;;;4.47;1.30;;;14.70;99.90;;;;;;5014914;28;20072;-80
2022/08/28 06:06:07;;;;;;;9.02;1.65;;;15.00;99.90;;;;;;5015483;28;20373;-79
2022/08/28 06:08:33;;;;;;;;;;;15.30;99.90;;;;;;5031924;28;20049;-80
2022/08/28 06:11:01;;;;;;;9.63;1.40;;;15.50;99.90;;;;;;5030895;28;19921;-80
2022/08/28 06:13:28;;;;;;;9.48;1.90;;;15.80;99.90;;;;;;5031226;28;20045;-80
2022/08/28 06:15:54;;;;;;;6.00;1.45;;;16.00;99.90;;;;;;5031480;28;20405;-80
2022/08/28 06:18:19;;;;;;;8.88;1.90;;;16.20;99.90;;;;;;5031344;28;20037;-80
2022/08/28 06:20:46;;;;;;;6.10;1.27;;;16.20;99.90;;;;;;5031011;28;20040;-80
2022/08/28 06:23:17;;;;;;;8.07;1.83;;;16.20;99.90;;;;;;5014716;28;20069;-80
2022/08/28 06:25:47;;;;;;;7.28;1.60;;;16.20;99.90;;;;;;5031462;28;20045;-80
2022/08/28 06:28:16;;;;;;;9.98;1.70;;;16.30;99.90;;;;;;5014381;28;20052;-80
2022/08/28 06:30:45;;;;;;;5.57;1.58;;;16.60;99.90;;;;;;5031217;28;20403;-80
2022/08/28 06:33:12;;;;;;;8.43;1.70;;;16.70;99.90;;;;;;5031285;28;20049;-80
2022/08/28 06:35:48;;;;;;;5.43;1.10;;;17.00;99.90;;;;;;5031295;28;20485;-80
2022/08/28 06:38:15;;;;;;;3.70;1.30;;;17.10;99.90;;;;;;5030891;28;20057;-81
2022/08/28 06:40:44;;;;;;;4.53;1.30;;;17.30;99.90;;;;;;5030616;28;20045;-81
2022/08/28 06:43:11;;;;;;;5.97;1.65;;;17.40;99.90;;;;;;5014440;28;20029;-80
2022/08/28 06:45:42;;;;;;;5.18;1.25;;;17.60;99.90;;;;;;5030335;28;20502;-80
2022/08/28 06:48:10;;;;;;;4.85;1.20;;;17.90;99.90;;;;;;5030822;28;20060;-80
2022/08/28 06:50:40;;;;;;;7.20;1.40;;;18.50;99.90;;;;;;5030556;28;20123;-81
2022/08/28 06:53:08;;;;;;;4.20;1.27;;;19.10;99.90;;;;;;5030908;28;20374;-80
2022/08/28 06:55:34;;;;;;;5.93;1.20;;;19.30;99.90;;;;;;5030577;28;20432;-80
2022/08/28 06:58:00;;;;;;;;;;;19.30;99.90;;;;;;5015000;28;20090;-81
2022/08/28 07:00:25;;;;;;;4.13;1.35;;;19.60;99.90;;;;;;5031328;28;20007;-81
2022/08/28 07:02:51;;;;;;;6.22;1.10;;;19.80;99.90;;;;;;5014225;28;20042;-81
2022/08/28 07:05:16;;;;;;;4.03;1.20;;;20.00;99.90;;;;;;5014795;28;20103;-81
2022/08/28 07:07:42;;;;;;;8.93;1.58;;;19.60;99.90;;;;;;5015984;28;20038;-81
2022/08/28 07:10:08;;;;;;;4.22;1.33;;;19.60;99.90;;;;;;5035330;28;20107;-81
2022/08/28 07:12:34;;;;;;;5.70;1.70;;;19.90;99.90;;;;;;5034471;28;20037;-81
2022/08/28 07:15:02;;;;;;;8.05;1.17;;;19.60;99.90;;;;;;5034756;28;20140;-81
2022/08/28 07:17:28;;;;;;;5.20;1.00;;;19.40;99.90;;;;;;5018410;28;20041;-81
2022/08/28 07:19:54;;;;;;;4.60;1.20;;;19.00;99.90;;;;;;5034578;28;20474;-81
2022/08/28 07:22:20;;;;;;;4.72;1.38;;;18.60;99.90;;;;;;5001347;28;20529;-80
2022/08/28 07:24:46;;;;;;;4.35;1.38;;;18.50;99.90;;;;;;5017932;28;20042;-81
2022/08/28 07:27:12;;;;;;;6.22;1.20;;;18.70;99.90;;;;;;5017883;28;20049;-81
2022/08/28 07:29:38;;;;;;;4.75;1.58;;;19.00;99.90;;;;;;5034046;28;20412;-80
2022/08/28 07:32:04;;;;;;;4.55;1.08;;;19.40;99.90;;;;;;5034436;28;20489;-81
2022/08/28 07:34:29;;;;;;;6.70;1.40;;;19.40;99.90;;;;;;5017760;28;20046;-81
2022/08/28 07:37:02;;;;;;;3.60;1.30;;;19.20;99.90;;;;;;5017474;28;20163;-81
2022/08/28 07:39:28;;;;;;;4.82;1.20;;;19.50;99.90;;;;;;5017331;28;20038;-80
2022/08/28 07:41:54;;;;;;;7.03;1.25;;;20.10;99.90;;;;;;5017469;28;20071;-81
2022/08/28 07:47:05;;;;;;;3.92;1.10;;;21.20;99.90;;;;;;5034114;28;20068;-81
2022/08/28 07:49:33;;;;;;;5.90;0.95;;;21.70;99.90;;;;;;5017846;28;20354;-81
2022/08/28 07:51:59;;;;;;;3.75;1.00;;;22.00;99.90;;;;;;5034145;28;20041;-81
2022/08/28 07:54:24;;;;;;;6.45;1.30;;;22.20;99.10;;;;;;5034047;28;20099;-81
2022/08/28 07:56:51;;;;;;;4.60;1.10;;;22.20;98.80;;;;;;5017261;28;20053;-81
2022/08/28 07:59:18;;;;;;;4.10;1.20;;;22.30;98.80;;;;;;5017651;28;20048;-82
2022/08/28 08:01:45;;;;;;;4.95;1.02;;;22.00;99.10;;;;;;5033984;28;20436;-81
2022/08/28 08:04:12;;;;;;;6.63;1.15;;;22.20;99.30;;;;;;5033904;28;20046;-81
2022/08/28 08:06:40;;;;;;;5.13;1.10;;;22.10;99.30;;;;;;5033742;28;20575;-82
2022/08/28 08:09:07;;;;;;;4.03;1.00;;;22.20;99.30;;;;;;5034131;28;20050;-82
2022/08/28 08:11:33;;;;;;;5.03;1.30;;;22.50;99.20;;;;;;5033437;28;20077;-82
2022/08/28 08:14:04;;;;;;;;;;;22.80;99.00;;;;;;5034111;28;20510;-82
2022/08/28 08:16:34;;;;;;;5.88;1.30;;;22.90;99.30;;;;;;5033417;28;20004;-82
2022/08/28 08:19:01;;;;;;;6.82;1.48;;;23.20;98.70;;;;;;5032878;28;20516;-82
2022/08/28 08:21:27;;;;;;;4.55;1.05;;;23.30;98.40;;;;;;5033731;28;20133;-82
2022/08/28 08:23:53;;;;;;;3.75;1.05;;;23.30;98.20;;;;;;5016902;28;20116;-82
2022/08/28 08:26:20;;;;;;;;;;;23.80;97.90;;;;;;5033685;28;20124;-82
2022/08/28 08:28:47;;;;;;;3.33;1.08;;;24.20;97.20;;;;;;5016576;28;20004;-82
2022/08/28 08:31:18;;;;;;;5.57;0.95;;;23.90;97.00;;;;;;5032805;28;20107;-82
2022/08/28 08:33:46;;;;;;;4.45;1.13;;;23.00;96.80;;;;;;5032837;28;20042;-82
2022/08/28 08:36:13;;;;;;;4.63;1.25;;;22.30;97.80;;;;;;5016796;28;20516;-82
2022/08/28 08:38:39;;;;;;;5.18;1.38;;;21.90;98.10;;;;;;5000534;28;20120;-82
2022/08/28 08:41:12;;;;;;;;;;;21.60;98.50;;;;;;5017233;28;20537;-82
2022/08/28 08:43:58;;;;;;;4.18;1.00;;;21.50;99.20;;;;;;5033281;28;20282;-82
2022/08/28 08:46:32;;;;;;;5.68;1.10;;;21.30;99.50;;;;;;5016482;28;20088;-82
2022/08/28 08:49:02;;;;;;;5.53;1.15;;;20.80;99.80;;;;;;5032321;28;20124;-82
2022/08/28 08:51:41;;;;;;;6.25;1.52;;;20.80;99.90;;;;;;5033327;28;20049;-82
2022/08/28 08:54:11;;;;;;;3.50;1.30;;;21.30;99.80;;;;;;5032700;28;20052;-82
2022/08/28 08:56:39;;;;;;;4.15;1.00;;;22.20;99.40;;;;;;5015774;28;20089;-82
2022/08/28 08:59:12;;;;;;;5.72;1.30;;;23.00;98.20;;;;;;5032909;28;20046;-83
2022/08/28 09:01:45;;;;;;;3.72;1.33;;;23.00;97.00;;;;;;5032654;28;20482;-82
2022/08/28 09:04:39;;;;;;;5.57;1.20;;;23.10;96.20;;;;;;5016462;28;20454;-82
2022/08/28 09:07:26;;;;;;;2.75;0.90;;;23.10;95.80;;;;;;5032567;28;20408;-82
2022/08/28 09:09:52;;;;;;;;;;;22.80;96.20;;;;;;5032692;28;20137;-80
2022/08/28 09:12:24;;;;;;;3.03;1.20;;;23.20;95.90;;;;;;5032035;28;19963;-80
2022/08/28 09:15:07;;;;;;;3.13;0.95;;;23.70;96.20;;;;;;5032054;28;20099;-80
2022/08/28 09:17:36;;;;;;;4.00;1.20;;;23.80;95.60;;;;;;5032189;28;20038;-80
2022/08/28 09:20:08;;;;;;;3.88;1.00;;;23.80;95.30;;;;;;5032493;28;20046;-83
2022/08/28 09:22:34;;;;;;;3.25;1.20;;;23.90;94.30;;;;;;5032397;28;20524;-83
2022/08/28 09:25:00;;;;;;;5.50;1.20;;;23.80;94.70;;;;;;5031894;28;20042;-83
2022/08/28 09:27:27;;;;;;;;;;;24.00;94.80;;;;;;5032530;28;20119;-83
2022/08/28 09:29:56;;;;;;;5.07;1.30;;;24.30;95.00;;;;;;5031274;28;19939;-83
2022/08/28 09:32:34;;;;;;;4.88;0.90;;;24.50;94.70;;;;;;5031283;28;20292;-83
2022/08/28 09:35:14;;;;;;;4.43;1.02;;;24.70;94.40;;;;;;5031665;28;20049;-83
2022/08/28 09:37:41;;;;;;;2.40;0.95;;;25.20;93.90;;;;;;5031841;28;20045;-81
2022/08/28 09:40:25;;;;;;;4.45;1.00;;;25.40;93.40;;;;;;4982934;28;20034;-80
2022/08/28 09:43:28;;;;;;;4.00;0.95;;;25.60;93.10;;;;;;5014825;28;20048;-80
2022/08/28 09:46:05;;;;;;;4.15;1.10;;;25.10;93.50;;;;;;5014848;28;20148;-83
2022/08/28 09:48:37;;;;;;;4.85;1.20;;;25.20;93.80;;;;;;5031382;28;20056;-83
2022/08/28 09:51:11;;;;;;;6.57;1.35;;;25.80;94.00;;;;;;5032049;28;20428;-83
2022/08/28 09:53:55;;;;;;;3.17;1.07;;;25.20;93.60;;;;;;5089080;28;20978;-82
2022/08/28 09:56:27;;;;;;;5.28;0.95;;;25.70;93.50;;;;;;5088064;28;20071;-82
2022/08/28 09:58:59;;;;;;;3.10;1.25;;;25.50;93.50;;;;;;5088068;28;20040;-82
2022/08/28 10:01:39;;;;;;;3.85;1.00;;;25.20;93.60;;;;;;5088377;28;20572;-82
2022/08/28 10:04:14;;;;;;;4.25;1.00;;;25.60;93.50;;;;;;5071591;28;20403;-82
2022/08/28 10:06:50;;;;;;;6.63;1.17;;;26.00;93.50;;;;;;5077433;28;20044;-82
2022/08/28 10:09:22;;;;;;;4.97;1.20;;;26.40;93.10;;;;;;5067440;28;20040;-82
2022/08/28 10:12:13;;;;;;;4.30;1.05;;;26.80;92.80;;;;;;5050681;28;20131;-81
2022/08/28 10:14:44;;;;;;;4.97;1.02;;;26.50;92.70;;;;;;5050626;28;20037;-82
2022/08/28 10:17:16;;;;;;;5.85;1.35;;;25.60;93.10;;;;;;5067415;28;20522;-82
2022/08/28 10:20:13;;;;;;;3.75;0.82;;;25.10;93.30;;;;;;5050766;28;20052;-82
2022/08/28 10:22:57;;;;;;;2.90;0.88;;;24.70;93.90;;;;;;5066990;28;20036;-82
2022/08/28 10:25:36;;;;;;;4.72;1.38;;;25.00;93.40;;;;;;5050664;28;20040;-82
2022/08/28 10:28:13;;;;;;;4.75;1.25;;;25.50;93.70;;;;;;5067169;28;20044;-82
2022/08/28 10:30:53;;;;;;;5.47;1.00;;;25.70;93.10;;;;;;5067095;28;20055;-81
2022/08/28 10:33:31;;;;;;;5.25;1.05;;;25.20;93.00;;;;;;5050479;28;20049;-82
2022/08/28 10:36:04;;;;;;;2.85;0.80;;;25.10;93.80;;;;;;5050140;28;20147;-82
2022/08/28 10:38:43;;;;;;;6.25;1.33;;;25.20;93.70;;;;;;5066464;28;20041;-82
2022/08/28 10:41:25;;;;;;;3.85;0.93;;;25.20;93.20;;;;;;5050546;28;20052;-82
2022/08/28 10:43:53;;;;;;;4.60;1.20;;;24.90;93.30;;;;;;5066969;28;20400;-82
2022/08/28 10:46:23;;;;;;;3.90;1.10;;;25.20;93.30;;;;;;5050251;28;20040;-82
2022/08/28 10:49:01;;;;;;;3.00;0.90;;;25.70;93.30;;;;;;5066442;28;20403;-82
2022/08/28 10:51:32;;;;;;;3.50;1.00;;;25.60;92.40;;;;;;5066523;28;20040;-82
2022/08/28 10:54:05;;;;;;;5.43;1.10;;;26.00;92.40;;;;;;5066643;28;20562;-82
2022/08/28 10:56:39;;;;;;;3.95;1.23;;;26.40;92.40;;;;;;5066805;28;20038;-82
2022/08/28 10:59:05;;;;;;;3.80;1.10;;;25.90;92.40;;;;;;5069795;28;20036;-82
2022/08/28 11:01:35;;;;;;;4.63;1.20;;;25.10;92.70;;;;;;5053303;28;20036;-82
2022/08/28 11:04:06;;;;;;;5.13;1.10;;;24.80;93.20;;;;;;5079467;28;20037;-81
2022/08/28 11:06:46;;;;;;;5.25;1.20;;;24.50;93.50;;;;;;5073621;28;20033;-82
2022/08/28 11:09:41;;;;;;;3.78;1.13;;;24.30;93.80;;;;;;5073604;28;20032;-82
2022/08/28 11:12:16;;;;;;;2.47;0.93;;;24.90;93.30;;;;;;5053005;28;20048;-82
2022/08/28 11:14:44;;;;;;;2.83;0.93;;;25.10;92.80;;;;;;5056405;28;20123;-82
2022/08/28 11:17:37;;;;;;;2.33;0.90;;;25.40;92.80;;;;;;5072190;28;20040;-82
2022/08/28 11:20:12;;;;;;;4.57;1.10;;;25.90;92.30;;;;;;5053284;28;20041;-82
2022/08/28 11:22:44;;;;;;;5.28;1.35;;;26.30;92.00;;;;;;5036200;28;20754;-82
2022/08/28 11:25:25;;;;;;;8.20;1.38;;;26.40;91.90;;;;;;5036432;28;20072;-82
2022/08/28 11:28:26;;;;;;;4.72;1.10;;;26.90;91.80;;;;;;5069418;28;20045;-82
2022/08/28 11:31:14;;;;;;;5.60;1.10;;;27.40;91.20;;;;;;5052609;28;20119;-82
2022/08/28 11:33:46;;;;;;;5.85;1.02;;;27.30;90.10;;;;;;5047107;28;20136;-82
2022/08/28 11:36:12;;;;;;;4.85;1.10;;;27.40;90.20;;;;;;5052675;28;20123;-82
2022/08/28 11:38:40;;;;;;;4.38;1.17;;;27.10;90.40;;;;;;5035896;28;20508;-82
2022/08/28 11:41:25;;;;;;;3.30;1.13;;;26.70;91.00;;;;;;5052482;28;20052;-82
2022/08/28 11:44:13;;;;;;;3.42;1.00;;;26.50;90.90;;;;;;5035912;28;20040;-82
2022/08/28 11:46:46;;;;;;;4.30;1.10;;;27.20;91.00;;;;;;5051999;28;20040;-81
2022/08/28 11:49:30;;;;;;;4.07;1.20;;;27.30;91.00;;;;;;5036207;28;20102;-82
2022/08/28 11:52:20;;;;;;;3.85;1.10;;;27.70;90.70;;;;;;5047303;28;20091;-82
2022/08/28 11:54:58;;;;;;;5.30;1.30;;;27.30;90.90;;;;;;5056223;28;20694;-82
2022/08/28 11:57:43;;;;;;;5.72;1.27;;;27.30;91.30;;;;;;5055855;28;20037;-82
2022/08/28 12:00:22;;;;;;;4.97;1.05;;;26.50;91.00;;;;;;5055839;28;20047;-81
2022/08/28 12:03:06;;;;;;;5.07;1.00;;;27.00;91.00;;;;;;5072063;28;20447;-81
2022/08/28 12:05:32;;;;;;;7.38;1.38;;;27.20;91.20;;;;;;5072089;28;20051;-81
2022/08/28 12:08:01;;;;;;;3.13;1.35;;;27.70;90.80;;;;;;5071659;28;20049;-82
2022/08/28 12:10:28;;;;;;;4.95;1.00;;;27.70;90.80;;;;;;5072280;28;20381;-82
2022/08/28 12:12:57;;;;;;;4.90;1.33;;;27.30;90.90;;;;;;5055492;28;20041;-82
2022/08/28 12:15:26;;;;;;;2.60;0.90;;;27.40;90.90;;;;;;5034243;28;20041;-82
2022/08/28 12:18:03;;;;;;;3.95;1.02;;;27.30;90.90;;;;;;5051618;28;20037;-82
2022/08/28 12:20:38;;;;;;;2.60;0.98;;;26.90;90.00;;;;;;5035347;28;20123;-82
2022/08/28 12:23:22;;;;;;;3.40;0.90;;;26.60;90.20;;;;;;5035041;28;20040;-82
2022/08/28 12:25:56;;;;;;;4.45;1.00;;;26.60;90.50;;;;;;5035552;28;20044;-82
2022/08/28 12:28:30;;;;;;;4.88;0.70;;;26.80;90.70;;;;;;5060477;28;20040;-82
2022/08/28 12:32:10;;;;;;;4.43;0.90;;;27.10;90.60;;;;;;5071377;28;20044;-82
2022/08/28 12:34:30;;;;;;;3.22;0.93;;;27.30;90.10;;;;;;5071415;28;20082;-82
2022/08/28 12:37:00;;;;;;;3.78;1.00;;;27.20;90.20;;;;;;5071342;28;20064;-82
2022/08/28 12:39:30;;;;;;;4.47;1.20;;;26.70;90.40;;;;;;5071286;28;20123;-82
2022/08/28 12:41:56;;;;;;;3.22;0.88;;;26.30;90.80;;;;;;5054872;28;20047;-82
2022/08/28 12:44:27;;;;;;;2.40;1.05;;;26.30;91.00;;;;;;5071302;28;20115;-82
2022/08/28 12:46:54;;;;;;;3.03;0.88;;;26.40;91.40;;;;;;5050508;28;20373;-82
2022/08/28 12:49:26;;;;;;;2.90;0.80;;;26.60;91.50;;;;;;5051806;28;20040;-82
2022/08/28 12:52:19;;;;;;;4.93;0.77;;;26.80;91.20;;;;;;5050692;28;20087;-82
2022/08/28 12:54:48;;;;;;;3.03;0.90;;;26.70;91.20;;;;;;5067714;28;20049;-82
2022/08/28 12:57:24;;;;;;;3.13;0.80;;;26.70;91.30;;;;;;5051098;28;20037;-82
2022/08/28 12:59:51;;;;;;;;;;;26.60;91.60;;;;;;5034835;28;20087;-82
2022/08/28 13:02:17;;;;;;;3.40;1.00;;;26.60;91.90;;;;;;5051166;28;20007;-82
2022/08/28 13:04:57;;;;;;;3.85;0.98;;;26.30;91.90;;;;;;5050585;28;20151;-82
2022/08/28 13:07:28;;;;;;;3.60;0.85;;;26.20;91.90;;;;;;5034648;28;20044;-82
2022/08/28 13:09:58;;;;;;;5.25;1.02;;;26.30;92.20;;;;;;5034091;28;20049;-82
2022/08/28 13:12:32;;;;;;;2.92;0.88;;;26.10;92.40;;;;;;5050705;28;20148;-82